createdAt,value
2018-12-02T00:00:49.738Z,4.60
2018-12-02T00:01:57.791Z,4.60
2018-12-02T00:03:05.837Z,4.50
2018-12-02T00:04:13.920Z,4.58
2018-12-02T00:05:21.960Z,4.63
2018-12-02T00:06:30.008Z,4.55
2018-12-02T00:07:38.091Z,4.60
2018-12-02T00:08:46.148Z,4.66
2018-12-02T00:09:54.185Z,4.60
2018-12-02T00:11:02.248Z,4.62
2018-12-02T00:12:10.333Z,4.59
2018-12-02T00:13:18.370Z,4.54
2018-12-02T00:14:26.435Z,4.62
2018-12-02T00:15:34.485Z,4.73
2018-12-02T00:16:42.553Z,4.70
2018-12-02T00:17:50.619Z,4.72
2018-12-02T00:18:58.650Z,4.75
2018-12-02T00:20:06.722Z,4.75
2018-12-02T00:21:14.792Z,4.66
2018-12-02T00:22:22.849Z,4.78
2018-12-02T00:23:30.903Z,4.72
2018-12-02T00:24:38.964Z,4.84
2018-12-02T00:25:47.032Z,4.89
2018-12-02T00:26:55.067Z,4.85
2018-12-02T00:28:03.159Z,4.86
2018-12-02T00:29:11.195Z,4.92
2018-12-02T00:30:19.268Z,4.92
2018-12-02T00:31:27.322Z,5.02
2018-12-02T00:32:35.383Z,5.00
2018-12-02T00:33:43.435Z,5.06
2018-12-02T00:34:51.501Z,5.03
2018-12-02T00:35:59.561Z,5.04
2018-12-02T00:37:07.607Z,5.10
2018-12-02T00:38:15.672Z,5.18
2018-12-02T00:39:23.766Z,5.07
2018-12-02T00:40:31.793Z,5.12
2018-12-02T00:41:39.852Z,5.15
2018-12-02T00:42:47.897Z,5.21
2018-12-02T00:43:55.981Z,5.13
2018-12-02T00:45:04.022Z,5.20
2018-12-02T00:46:12.079Z,5.18
2018-12-02T00:47:20.148Z,5.20
2018-12-02T00:48:28.200Z,5.15
2018-12-02T00:49:36.275Z,5.22
2018-12-02T00:50:44.315Z,5.20
2018-12-02T00:51:52.389Z,5.21
2018-12-02T00:53:00.459Z,5.28
2018-12-02T00:54:08.490Z,5.20
2018-12-02T00:55:16.548Z,5.20
2018-12-02T00:56:24.607Z,5.13
2018-12-02T00:57:32.682Z,5.25
2018-12-02T00:58:40.728Z,5.22
2018-12-02T00:59:48.800Z,5.18
2018-12-02T01:00:56.845Z,5.30
2018-12-02T01:02:04.901Z,5.27
2018-12-02T01:03:13.017Z,5.28
2018-12-02T01:04:21.035Z,5.30
2018-12-02T01:05:29.083Z,5.35
2018-12-02T01:06:37.147Z,5.28
2018-12-02T01:07:45.207Z,5.31
2018-12-02T01:08:53.259Z,5.33
2018-12-02T01:10:01.458Z,5.39
2018-12-02T01:11:09.389Z,5.28
2018-12-02T01:12:17.439Z,5.31
2018-12-02T01:13:25.507Z,5.35
2018-12-02T01:14:33.542Z,5.31
2018-12-02T01:15:41.623Z,5.40
2018-12-02T01:16:49.662Z,5.36
2018-12-02T01:17:57.765Z,5.35
2018-12-02T01:19:05.790Z,5.42
2018-12-02T01:20:13.815Z,5.42
2018-12-02T01:21:21.900Z,5.43
2018-12-02T01:22:29.971Z,5.28
2018-12-02T01:23:38.013Z,5.33
2018-12-02T01:24:46.084Z,5.30
2018-12-02T01:25:54.147Z,5.30
2018-12-02T01:27:02.180Z,5.27
2018-12-02T01:28:10.246Z,5.31
2018-12-02T01:29:18.314Z,5.38
2018-12-02T01:30:26.371Z,5.39
2018-12-02T01:31:34.438Z,5.33
2018-12-02T01:32:42.501Z,5.35
2018-12-02T01:33:50.560Z,5.31
2018-12-02T01:34:58.615Z,5.27
2018-12-02T01:36:06.677Z,5.30
2018-12-02T01:37:14.724Z,5.30
2018-12-02T01:38:22.796Z,5.33
2018-12-02T01:39:30.863Z,5.31
2018-12-02T01:40:38.919Z,5.30
2018-12-02T01:41:46.967Z,5.30
2018-12-02T01:42:55.060Z,5.31
2018-12-02T01:44:03.104Z,5.35
2018-12-02T01:45:11.151Z,5.33
2018-12-02T01:46:19.207Z,5.30
2018-12-02T01:47:27.277Z,5.30
2018-12-02T01:48:35.333Z,5.30
2018-12-02T01:49:43.400Z,5.33
2018-12-02T01:50:51.471Z,5.33
2018-12-02T01:51:59.525Z,5.39
2018-12-02T01:53:07.585Z,5.36
2018-12-02T01:54:15.663Z,5.38
2018-12-02T01:55:23.678Z,5.39
2018-12-02T01:56:31.752Z,5.27
2018-12-02T01:57:39.818Z,5.27
2018-12-02T01:58:47.859Z,5.35
2018-12-02T01:59:55.946Z,5.36
2018-12-02T02:01:03.982Z,5.49
2018-12-02T02:02:12.052Z,5.38
2018-12-02T02:03:20.119Z,5.33
2018-12-02T02:04:28.179Z,5.40
2018-12-02T02:05:36.233Z,5.40
2018-12-02T02:06:44.298Z,5.45
2018-12-02T02:07:52.362Z,5.35
2018-12-02T02:09:00.405Z,5.38
2018-12-02T02:10:08.457Z,5.40
2018-12-02T02:11:16.519Z,5.48
2018-12-02T02:12:24.583Z,5.51
2018-12-02T02:13:32.644Z,5.42
2018-12-02T02:14:40.703Z,5.51
2018-12-02T02:15:48.767Z,5.45
2018-12-02T02:16:56.849Z,5.53
2018-12-02T02:18:04.887Z,5.48
2018-12-02T02:19:12.957Z,5.56
2018-12-02T02:20:21.019Z,5.53
2018-12-02T02:21:29.076Z,5.53
2018-12-02T02:22:37.179Z,5.56
2018-12-02T02:23:45.193Z,5.51
2018-12-02T02:24:53.258Z,5.61
2018-12-02T02:26:01.316Z,5.63
2018-12-02T02:27:09.399Z,5.61
2018-12-02T02:28:17.429Z,5.53
2018-12-02T02:29:25.494Z,5.60
2018-12-02T02:30:33.542Z,5.61
2018-12-02T02:31:41.617Z,5.51
2018-12-02T02:32:49.678Z,5.56
2018-12-02T02:33:57.733Z,5.49
2018-12-02T02:35:05.779Z,5.61
2018-12-02T02:36:13.837Z,5.53
2018-12-02T02:37:21.925Z,5.53
2018-12-02T02:38:29.960Z,5.57
2018-12-02T02:39:38.023Z,5.60
2018-12-02T02:40:46.078Z,5.64
2018-12-02T02:41:54.126Z,5.60
2018-12-02T02:43:02.224Z,5.60
2018-12-02T02:44:10.264Z,5.61
2018-12-02T02:45:18.322Z,5.63
2018-12-02T02:46:26.388Z,5.63
2018-12-02T02:47:34.490Z,5.74
2018-12-02T02:48:42.512Z,5.72
2018-12-02T02:49:50.562Z,5.63
2018-12-02T02:50:58.607Z,5.72
2018-12-02T02:52:06.678Z,5.64
2018-12-02T02:53:14.749Z,5.75
2018-12-02T02:54:22.811Z,5.75
2018-12-02T02:55:30.883Z,5.65
2018-12-02T02:56:38.934Z,5.71
2018-12-02T02:57:47.081Z,5.72
2018-12-02T02:58:55.028Z,5.71
2018-12-02T03:00:03.117Z,5.75
2018-12-02T03:01:11.181Z,5.78
2018-12-02T03:02:19.207Z,5.78
2018-12-02T03:03:27.279Z,5.75
2018-12-02T03:04:35.355Z,5.76
2018-12-02T03:05:43.431Z,5.79
2018-12-02T03:06:51.453Z,5.83
2018-12-02T03:07:59.519Z,5.81
2018-12-02T03:09:07.598Z,5.78
2018-12-02T03:10:15.637Z,5.81
2018-12-02T03:11:23.669Z,5.74
2018-12-02T03:12:31.765Z,5.75
2018-12-02T03:13:39.841Z,5.75
2018-12-02T03:14:47.874Z,5.71
2018-12-02T03:15:55.942Z,5.81
2018-12-02T03:17:03.987Z,5.79
2018-12-02T03:18:12.064Z,5.78
2018-12-02T03:19:20.123Z,5.78
2018-12-02T03:20:28.176Z,5.83
2018-12-02T03:21:36.244Z,5.71
2018-12-02T03:22:44.307Z,5.74
2018-12-02T03:23:52.379Z,5.76
2018-12-02T03:25:00.418Z,5.74
2018-12-02T03:26:08.483Z,5.68
2018-12-02T03:27:16.548Z,5.67
2018-12-02T03:28:24.583Z,5.63
2018-12-02T03:29:32.653Z,5.71
2018-12-02T03:30:40.742Z,5.67
2018-12-02T03:31:48.783Z,5.71
2018-12-02T03:32:56.853Z,5.64
2018-12-02T03:34:04.887Z,5.71
2018-12-02T03:35:12.961Z,5.71
2018-12-02T03:36:21.007Z,5.64
2018-12-02T03:37:29.085Z,5.74
2018-12-02T03:38:37.149Z,5.68
2018-12-02T03:39:45.203Z,5.74
2018-12-02T03:40:53.246Z,5.67
2018-12-02T03:42:01.294Z,5.72
2018-12-02T03:43:09.379Z,5.60
2018-12-02T03:44:17.443Z,5.63
2018-12-02T03:45:25.493Z,5.65
2018-12-02T03:46:33.570Z,5.64
2018-12-02T03:47:41.643Z,5.74
2018-12-02T03:48:49.676Z,5.76
2018-12-02T03:49:57.740Z,5.72
2018-12-02T03:51:05.800Z,5.63
2018-12-02T03:52:13.852Z,5.65
2018-12-02T03:53:21.921Z,5.57
2018-12-02T03:54:29.972Z,5.54
2018-12-02T03:55:38.032Z,5.57
2018-12-02T03:56:46.091Z,5.49
2018-12-02T03:57:54.165Z,5.57
2018-12-02T03:59:02.229Z,5.49
2018-12-02T04:00:10.289Z,5.54
2018-12-02T04:01:18.339Z,5.48
2018-12-02T04:02:26.433Z,5.45
2018-12-02T04:03:34.458Z,5.45
2018-12-02T04:04:42.533Z,5.45
2018-12-02T04:05:50.586Z,5.48
2018-12-02T04:06:58.647Z,5.51
2018-12-02T04:08:06.689Z,5.60
2018-12-02T04:09:14.771Z,5.53
2018-12-02T04:10:22.834Z,5.60
2018-12-02T04:11:30.861Z,5.60
2018-12-02T04:12:38.933Z,5.51
2018-12-02T04:13:47.023Z,5.53
2018-12-02T04:14:55.069Z,5.49
2018-12-02T04:16:03.157Z,5.53
2018-12-02T04:17:11.189Z,5.56
2018-12-02T04:18:19.238Z,5.56
2018-12-02T04:19:27.335Z,5.49
2018-12-02T04:20:35.392Z,5.51
2018-12-02T04:21:43.450Z,5.49
2018-12-02T04:22:51.506Z,5.56
2018-12-02T04:23:59.553Z,5.51
2018-12-02T04:25:07.594Z,5.43
2018-12-02T04:26:15.658Z,5.46
2018-12-02T04:27:23.707Z,5.49
2018-12-02T04:28:31.772Z,5.49
2018-12-02T04:29:39.845Z,5.49
2018-12-02T04:30:47.908Z,5.54
2018-12-02T04:31:55.951Z,5.48
2018-12-02T04:33:04.005Z,5.49
2018-12-02T04:34:12.077Z,5.53
2018-12-02T04:35:20.150Z,5.54
2018-12-02T04:36:28.184Z,5.54
2018-12-02T04:37:36.251Z,5.49
2018-12-02T04:38:44.304Z,5.56
2018-12-02T04:39:52.399Z,5.64
2018-12-02T04:41:00.428Z,5.60
2018-12-02T04:42:08.542Z,5.53
2018-12-02T04:43:16.555Z,5.53
2018-12-02T04:44:24.613Z,5.61
2018-12-02T04:45:32.689Z,5.60
2018-12-02T04:46:40.741Z,5.64
2018-12-02T04:47:48.795Z,5.60
2018-12-02T04:48:56.875Z,5.67
2018-12-02T04:50:04.921Z,5.63
2018-12-02T04:51:12.970Z,5.64
2018-12-02T04:52:21.020Z,5.60
2018-12-02T04:53:29.089Z,5.75
2018-12-02T04:54:37.156Z,5.68
2018-12-02T04:55:45.219Z,5.71
2018-12-02T04:56:53.270Z,5.67
2018-12-02T04:58:01.345Z,5.67
2018-12-02T04:59:09.391Z,5.71
2018-12-02T05:00:17.448Z,5.71
2018-12-02T05:01:25.524Z,5.78
2018-12-02T05:02:33.600Z,5.68
2018-12-02T05:03:41.651Z,5.74
2018-12-02T05:04:49.699Z,5.79
2018-12-02T05:05:57.757Z,5.86
2018-12-02T05:07:05.888Z,5.89
2018-12-02T05:08:13.874Z,5.94
2018-12-02T05:09:21.954Z,5.91
2018-12-02T05:10:29.990Z,5.91
2018-12-02T05:11:38.053Z,5.89
2018-12-02T05:12:46.125Z,5.86
2018-12-02T05:13:54.166Z,5.86
2018-12-02T05:15:02.235Z,5.96
2018-12-02T05:16:10.302Z,5.91
2018-12-02T05:17:18.353Z,5.86
2018-12-02T05:18:26.405Z,5.93
2018-12-02T05:19:34.473Z,5.89
2018-12-02T05:20:42.532Z,5.89
2018-12-02T05:21:50.597Z,5.86
2018-12-02T05:22:58.644Z,5.85
2018-12-02T05:24:06.700Z,5.90
2018-12-02T05:25:17.710Z,5.93
2018-12-02T05:26:22.828Z,5.91
2018-12-02T05:27:30.894Z,5.89
2018-12-02T05:28:38.974Z,5.89
2018-12-02T05:29:47.038Z,5.90
2018-12-02T05:30:55.086Z,5.93
2018-12-02T05:32:03.157Z,5.89
2018-12-02T05:33:11.210Z,5.94
2018-12-02T05:34:19.266Z,5.91
2018-12-02T05:35:27.308Z,5.91
2018-12-02T05:36:35.381Z,5.91
2018-12-02T05:37:43.440Z,5.93
2018-12-02T05:38:51.496Z,5.96
2018-12-02T05:39:59.561Z,5.91
2018-12-02T05:41:07.618Z,5.93
2018-12-02T05:42:15.684Z,5.99
2018-12-02T05:43:23.738Z,5.90
2018-12-02T05:44:31.810Z,6.00
2018-12-02T05:45:39.869Z,5.99
2018-12-02T05:46:47.928Z,6.03
2018-12-02T05:47:55.973Z,5.99
2018-12-02T05:49:04.034Z,6.08
2018-12-02T05:50:12.096Z,6.00
2018-12-02T05:51:20.170Z,6.11
2018-12-02T05:52:28.231Z,6.03
2018-12-02T05:53:36.287Z,6.08
2018-12-02T05:54:44.360Z,6.06
2018-12-02T05:55:52.401Z,6.01
2018-12-02T05:57:00.444Z,6.04
2018-12-02T05:58:08.518Z,6.04
2018-12-02T05:59:16.592Z,6.09
2018-12-02T06:00:24.662Z,5.96
2018-12-02T06:01:32.701Z,6.08
2018-12-02T06:02:40.748Z,6.03
2018-12-02T06:03:48.826Z,6.11
2018-12-02T06:04:56.887Z,6.04
2018-12-02T06:06:04.950Z,6.04
2018-12-02T06:07:12.993Z,6.08
2018-12-02T06:08:21.072Z,6.06
2018-12-02T06:09:29.122Z,6.11
2018-12-02T06:10:37.177Z,6.12
2018-12-02T06:11:45.308Z,6.08
2018-12-02T06:12:53.306Z,6.08
2018-12-02T06:14:01.353Z,6.04
2018-12-02T06:15:09.437Z,6.08
2018-12-02T06:16:17.479Z,6.12
2018-12-02T06:17:25.541Z,6.01
2018-12-02T06:18:34.180Z,6.17
2018-12-02T06:19:41.660Z,6.06
2018-12-02T06:20:49.726Z,6.15
2018-12-02T06:21:58.027Z,6.09
2018-12-02T06:23:05.860Z,6.14
2018-12-02T06:24:13.906Z,6.06
2018-12-02T06:25:21.974Z,6.09
2018-12-02T06:26:30.041Z,6.06
2018-12-02T06:27:38.083Z,6.11
2018-12-02T06:28:46.149Z,6.19
2018-12-02T06:29:54.700Z,6.08
2018-12-02T06:31:02.261Z,6.11
2018-12-02T06:32:10.321Z,6.19
2018-12-02T06:33:18.387Z,6.17
2018-12-02T06:34:26.447Z,6.27
2018-12-02T06:35:34.480Z,6.14
2018-12-02T06:36:42.543Z,6.22
2018-12-02T06:37:50.705Z,6.14
2018-12-02T06:38:58.676Z,6.19
2018-12-02T06:40:06.747Z,6.25
2018-12-02T06:41:14.793Z,6.15
2018-12-02T06:42:22.883Z,6.15
2018-12-02T06:43:30.918Z,6.14
2018-12-02T06:44:39.489Z,6.15
2018-12-02T06:45:47.030Z,6.06
2018-12-02T06:48:03.140Z,6.09
2018-12-02T06:49:11.217Z,6.04
2018-12-02T06:50:19.306Z,6.06
2018-12-02T06:51:27.363Z,6.08
2018-12-02T06:51:50.121Z,6.09
2018-12-02T06:52:58.178Z,6.14
2018-12-02T06:54:06.207Z,6.12
2018-12-02T06:55:14.307Z,6.03
2018-12-02T06:56:22.391Z,6.09
2018-12-02T06:57:30.430Z,6.17
2018-12-02T06:58:38.508Z,6.19
2018-12-02T06:59:46.534Z,6.14
2018-12-02T07:00:54.592Z,6.19
2018-12-02T07:02:02.656Z,6.09
2018-12-02T07:03:10.695Z,6.19
2018-12-02T07:04:18.939Z,6.18
2018-12-02T07:05:27.523Z,6.12
2018-12-02T07:06:34.927Z,6.12
2018-12-02T07:07:42.980Z,6.12
2018-12-02T07:08:51.038Z,6.19
2018-12-02T07:09:59.083Z,6.21
2018-12-02T07:11:07.114Z,6.27
2018-12-02T07:12:15.263Z,6.19
2018-12-02T07:13:23.248Z,6.27
2018-12-02T07:14:31.284Z,6.27
2018-12-02T07:15:39.352Z,6.31
2018-12-02T07:16:47.426Z,6.27
2018-12-02T07:17:56.130Z,6.37
2018-12-02T07:19:03.739Z,6.34
2018-12-02T07:20:11.660Z,6.36
2018-12-02T07:21:20.056Z,6.36
2018-12-02T07:22:28.401Z,6.36
2018-12-02T07:23:36.425Z,6.40
2018-12-02T07:24:44.057Z,6.49
2018-12-02T07:25:52.014Z,6.44
2018-12-02T07:27:00.091Z,6.46
2018-12-02T07:28:08.490Z,6.49
2018-12-02T07:29:16.374Z,6.52
2018-12-02T07:30:25.054Z,6.52
2018-12-02T07:31:32.621Z,6.55
2018-12-02T07:32:40.829Z,6.55
2018-12-02T07:33:48.326Z,6.59
2018-12-02T07:34:56.403Z,6.61
2018-12-02T07:36:04.438Z,6.64
2018-12-02T07:37:12.500Z,6.66
2018-12-02T07:38:20.557Z,6.61
2018-12-02T07:39:28.624Z,6.67
2018-12-02T07:40:36.953Z,6.64
2018-12-02T07:41:45.019Z,6.76
2018-12-02T07:42:52.925Z,6.70
2018-12-02T07:44:00.924Z,6.76
2018-12-02T07:45:08.983Z,6.77
2018-12-02T07:46:17.167Z,6.85
2018-12-02T07:47:25.148Z,6.85
2018-12-02T07:48:33.108Z,6.88
2018-12-02T07:49:41.796Z,6.94
2018-12-02T07:50:50.718Z,6.97
2018-12-02T07:51:57.996Z,6.92
2018-12-02T07:53:05.644Z,6.84
2018-12-02T07:54:13.692Z,6.91
2018-12-02T07:55:22.335Z,6.85
2018-12-02T07:56:29.528Z,6.97
2018-12-02T07:57:37.604Z,6.81
2018-12-02T07:58:45.917Z,6.88
2018-12-02T07:59:56.050Z,6.87
2018-12-02T08:01:01.740Z,6.85
2018-12-02T08:02:09.816Z,6.91
2018-12-02T08:03:17.877Z,6.85
2018-12-02T08:04:25.999Z,6.89
2018-12-02T08:05:34.041Z,6.85
2018-12-02T08:06:42.316Z,6.88
2018-12-02T08:07:50.119Z,6.91
2018-12-02T08:08:58.270Z,6.89
2018-12-02T08:10:06.224Z,6.85
2018-12-02T08:11:14.291Z,6.89
2018-12-02T08:12:22.348Z,6.81
2018-12-02T08:13:30.400Z,6.85
2018-12-02T08:14:38.492Z,6.84
2018-12-02T08:15:46.513Z,6.89
2018-12-02T08:16:55.026Z,6.89
2018-12-02T08:18:02.671Z,6.84
2018-12-02T08:19:11.237Z,6.88
2018-12-02T08:20:18.772Z,6.97
2018-12-02T08:21:26.836Z,6.77
2018-12-02T08:22:34.873Z,6.91
2018-12-02T08:23:42.987Z,6.89
2018-12-02T08:24:51.039Z,6.88
2018-12-02T08:25:59.379Z,6.94
2018-12-02T08:27:07.125Z,6.88
2018-12-02T08:28:15.197Z,6.84
2018-12-02T08:29:23.228Z,6.88
2018-12-02T08:30:31.321Z,6.88
2018-12-02T08:31:39.445Z,7.02
2018-12-02T08:32:47.417Z,6.95
2018-12-02T08:33:55.484Z,6.95
2018-12-02T08:35:03.553Z,7.06
2018-12-02T08:36:11.971Z,7.02
2018-12-02T08:37:19.666Z,7.06
2018-12-02T08:38:27.739Z,7.06
2018-12-02T08:39:35.786Z,6.98
2018-12-02T08:40:43.832Z,7.06
2018-12-02T08:41:51.927Z,7.05
2018-12-02T08:42:59.986Z,7.12
2018-12-02T08:44:08.047Z,7.17
2018-12-02T08:45:16.075Z,7.06
2018-12-02T08:46:24.170Z,7.06
2018-12-02T08:47:32.277Z,7.02
2018-12-02T08:48:40.289Z,7.05
2018-12-02T08:49:48.342Z,7.12
2018-12-02T08:50:56.454Z,7.17
2018-12-02T08:52:05.056Z,7.15
2018-12-02T08:53:12.510Z,7.13
2018-12-02T08:54:20.661Z,7.12
2018-12-02T08:55:28.623Z,7.13
2018-12-02T08:56:36.716Z,7.16
2018-12-02T08:57:44.733Z,7.12
2018-12-02T08:58:52.808Z,7.13
2018-12-02T09:00:00.877Z,7.28
2018-12-02T09:01:08.938Z,7.23
2018-12-02T09:02:16.987Z,7.17
2018-12-02T09:03:25.056Z,7.20
2018-12-02T09:04:34.634Z,7.17
2018-12-02T09:05:41.251Z,7.23
2018-12-02T09:06:49.248Z,7.24
2018-12-02T09:07:57.285Z,7.27
2018-12-02T09:09:05.362Z,7.21
2018-12-02T09:10:13.391Z,7.15
2018-12-02T09:11:21.495Z,7.23
2018-12-02T09:12:29.529Z,7.24
2018-12-02T09:13:37.594Z,7.21
2018-12-02T09:14:45.641Z,7.21
2018-12-02T09:15:53.680Z,7.24
2018-12-02T09:17:01.785Z,7.25
2018-12-02T09:18:09.815Z,7.30
2018-12-02T09:19:17.925Z,7.31
2018-12-02T09:20:25.945Z,7.40
2018-12-02T09:21:34.022Z,7.39
2018-12-02T09:22:42.115Z,7.42
2018-12-02T09:23:50.150Z,7.30
2018-12-02T09:24:58.188Z,7.37
2018-12-02T09:26:06.260Z,7.37
2018-12-02T09:27:14.332Z,7.39
2018-12-02T09:28:22.394Z,7.35
2018-12-02T09:29:30.427Z,7.42
2018-12-02T09:30:38.493Z,7.42
2018-12-02T09:31:46.553Z,7.37
2018-12-02T09:32:54.596Z,7.40
2018-12-02T09:34:02.673Z,7.31
2018-12-02T09:35:10.730Z,7.31
2018-12-02T09:36:18.804Z,7.34
2018-12-02T09:37:26.829Z,7.25
2018-12-02T09:38:34.914Z,7.21
2018-12-02T09:39:42.971Z,7.27
2018-12-02T09:40:51.046Z,7.23
2018-12-02T09:41:59.100Z,7.27
2018-12-02T09:43:07.160Z,7.39
2018-12-02T09:44:15.210Z,7.31
2018-12-02T09:45:23.335Z,7.35
2018-12-02T09:46:31.383Z,7.35
2018-12-02T09:47:39.384Z,7.30
2018-12-02T09:48:47.461Z,7.37
2018-12-02T09:49:55.504Z,7.30
2018-12-02T09:51:03.577Z,7.32
2018-12-02T09:52:11.654Z,7.25
2018-12-02T09:53:19.694Z,7.35
2018-12-02T09:54:27.753Z,7.25
2018-12-02T09:55:35.820Z,7.35
2018-12-02T09:56:43.863Z,7.30
2018-12-02T09:57:51.944Z,7.25
2018-12-02T09:59:00.021Z,7.28
2018-12-02T10:00:08.080Z,7.23
2018-12-02T10:01:16.125Z,7.23
2018-12-02T10:02:24.189Z,7.21
2018-12-02T10:03:32.239Z,7.30
2018-12-02T10:04:40.291Z,7.31
2018-12-02T10:05:48.388Z,7.27
2018-12-02T10:06:56.404Z,7.24
2018-12-02T10:08:04.458Z,7.24
2018-12-02T10:09:12.530Z,7.31
2018-12-02T10:10:22.598Z,7.40
2018-12-02T10:11:28.692Z,7.35
2018-12-02T10:12:36.722Z,7.42
2018-12-02T10:13:44.820Z,7.42
2018-12-02T10:14:52.841Z,7.35
2018-12-02T10:16:00.898Z,7.40
2018-12-02T10:17:08.982Z,7.37
2018-12-02T10:18:17.036Z,7.42
2018-12-02T10:19:25.096Z,7.37
2018-12-02T10:20:33.153Z,7.43
2018-12-02T10:21:41.227Z,7.46
2018-12-02T10:22:49.264Z,7.42
2018-12-02T10:23:57.327Z,7.48
2018-12-02T10:25:05.417Z,7.53
2018-12-02T10:26:13.453Z,7.52
2018-12-02T10:27:21.515Z,7.46
2018-12-02T10:28:29.582Z,7.53
2018-12-02T10:29:37.618Z,7.52
2018-12-02T10:30:45.687Z,7.52
2018-12-02T10:31:53.752Z,7.52
2018-12-02T10:33:01.829Z,7.58
2018-12-02T10:34:09.885Z,7.57
2018-12-02T10:35:17.954Z,7.57
2018-12-02T10:36:26.009Z,7.57
2018-12-02T10:37:34.071Z,7.64
2018-12-02T10:38:42.127Z,7.61
2018-12-02T10:39:50.188Z,7.60
2018-12-02T10:40:58.250Z,7.68
2018-12-02T10:42:06.309Z,7.69
2018-12-02T10:43:14.370Z,7.77
2018-12-02T10:44:22.452Z,7.71
2018-12-02T10:45:30.500Z,7.74
2018-12-02T10:46:43.786Z,7.75
2018-12-02T10:47:46.618Z,7.71
2018-12-02T10:48:54.698Z,7.72
2018-12-02T10:50:02.744Z,7.74
2018-12-02T10:51:10.816Z,7.74
2018-12-02T10:52:18.869Z,7.72
2018-12-02T10:53:26.950Z,7.79
2018-12-02T10:54:34.995Z,7.83
2018-12-02T10:55:43.054Z,7.85
2018-12-02T10:56:51.117Z,7.95
2018-12-02T10:57:59.174Z,7.98
2018-12-02T10:59:07.234Z,8.01
2018-12-02T11:00:15.309Z,8.00
2018-12-02T11:01:23.349Z,7.97
2018-12-02T11:02:31.430Z,8.00
2018-12-02T11:03:39.541Z,8.01
2018-12-02T11:04:47.545Z,8.04
2018-12-02T11:05:55.599Z,8.00
2018-12-02T11:07:03.658Z,8.15
2018-12-02T11:08:11.715Z,8.15
2018-12-02T11:09:19.816Z,8.25
2018-12-02T11:10:27.873Z,8.25
2018-12-02T11:11:35.918Z,8.34
2018-12-02T11:12:43.957Z,8.37
2018-12-02T11:13:52.042Z,8.37
2018-12-02T11:15:00.096Z,8.34
2018-12-02T11:16:08.360Z,8.40
2018-12-02T11:17:16.436Z,8.48
2018-12-02T11:18:24.462Z,8.53
2018-12-02T11:19:32.739Z,8.55
2018-12-02T11:20:40.608Z,8.55
2018-12-02T11:21:48.657Z,8.62
2018-12-02T11:22:56.741Z,8.58
2018-12-02T11:24:05.384Z,8.52
2018-12-02T11:25:13.449Z,8.53
2018-12-02T11:26:21.502Z,8.53
2018-12-02T11:27:29.611Z,8.62
2018-12-02T11:28:37.634Z,8.62
2018-12-02T11:29:45.708Z,8.61
2018-12-02T11:30:53.806Z,8.52
2018-12-02T11:32:01.884Z,8.55
2018-12-02T11:33:09.888Z,8.48
2018-12-02T11:34:17.948Z,8.52
2018-12-02T11:35:26.006Z,8.52
2018-12-02T11:36:34.078Z,8.45
2018-12-02T11:37:42.140Z,8.47
2018-12-02T11:38:50.204Z,8.45
2018-12-02T11:39:58.271Z,8.45
2018-12-02T11:41:06.353Z,8.45
2018-12-02T11:42:14.384Z,8.43
2018-12-02T11:43:22.464Z,8.44
2018-12-02T11:44:30.522Z,8.48
2018-12-02T11:45:38.563Z,8.45
2018-12-02T11:46:46.640Z,8.48
2018-12-02T11:47:54.688Z,8.40
2018-12-02T11:49:02.784Z,8.45
2018-12-02T11:50:10.915Z,8.43
2018-12-02T11:51:18.897Z,8.48
2018-12-02T11:52:26.946Z,8.43
2018-12-02T11:53:35.025Z,8.47
2018-12-02T11:54:43.095Z,8.52
2018-12-02T11:55:51.156Z,8.44
2018-12-02T11:56:59.217Z,8.40
2018-12-02T11:58:07.255Z,8.38
2018-12-02T11:59:15.339Z,8.41
2018-12-02T12:00:23.397Z,8.37
2018-12-02T12:01:31.441Z,8.43
2018-12-02T12:02:39.473Z,8.37
2018-12-02T12:03:47.571Z,8.44
2018-12-02T12:04:55.627Z,8.40
2018-12-02T12:06:03.685Z,8.47
2018-12-02T12:07:11.742Z,8.44
2018-12-02T12:08:19.800Z,8.50
2018-12-02T12:09:27.872Z,8.44
2018-12-02T12:10:35.941Z,8.48
2018-12-02T12:11:43.990Z,8.47
2018-12-02T12:12:52.071Z,8.55
2018-12-02T12:14:00.455Z,8.55
2018-12-02T12:15:08.198Z,8.58
2018-12-02T12:16:16.249Z,8.59
2018-12-02T12:17:24.317Z,8.52
2018-12-02T12:18:32.374Z,8.56
2018-12-02T12:19:40.431Z,8.58
2018-12-02T12:20:48.498Z,8.53
2018-12-02T12:21:56.554Z,8.59
2018-12-02T12:23:04.619Z,8.65
2018-12-02T12:24:12.679Z,8.59
2018-12-02T12:25:20.728Z,8.58
2018-12-02T12:26:28.801Z,8.62
2018-12-02T12:27:36.856Z,8.59
2018-12-02T12:28:44.950Z,8.56
2018-12-02T12:29:52.990Z,8.62
2018-12-02T12:31:01.044Z,8.63
2018-12-02T12:32:09.112Z,8.62
2018-12-02T12:33:17.176Z,8.63
2018-12-02T12:34:25.224Z,8.63
2018-12-02T12:35:33.281Z,8.65
2018-12-02T12:36:41.362Z,8.65
2018-12-02T12:37:49.404Z,8.59
2018-12-02T12:38:57.474Z,8.52
2018-12-02T12:40:05.541Z,8.58
2018-12-02T12:41:13.610Z,8.50
2018-12-02T12:42:21.674Z,8.48
2018-12-02T12:43:29.714Z,8.47
2018-12-02T12:44:37.788Z,8.58
2018-12-02T12:45:45.831Z,8.44
2018-12-02T12:46:53.920Z,8.48
2018-12-02T12:48:01.964Z,8.56
2018-12-02T12:49:10.029Z,8.56
2018-12-02T12:50:18.104Z,8.55
2018-12-02T12:51:26.164Z,8.47
2018-12-02T12:52:34.213Z,8.55
2018-12-02T12:53:42.308Z,8.58
2018-12-02T12:54:50.329Z,8.56
2018-12-02T12:55:58.416Z,8.58
2018-12-02T12:57:06.437Z,8.59
2018-12-02T12:58:14.492Z,8.52
2018-12-02T12:59:22.582Z,8.53
2018-12-02T13:00:30.630Z,8.62
2018-12-02T13:01:38.699Z,8.61
2018-12-02T13:02:46.754Z,8.53
2018-12-02T13:03:54.807Z,8.55
2018-12-02T13:05:02.893Z,8.61
2018-12-02T13:06:10.936Z,8.55
2018-12-02T13:07:19.004Z,8.61
2018-12-02T13:08:27.056Z,8.66
2018-12-02T13:09:35.118Z,8.59
2018-12-02T13:10:43.196Z,8.68
2018-12-02T13:11:51.231Z,8.65
2018-12-02T13:12:59.294Z,8.55
2018-12-02T13:14:07.384Z,8.58
2018-12-02T13:15:15.415Z,8.65
2018-12-02T13:16:23.490Z,8.66
2018-12-02T13:17:31.575Z,8.66
2018-12-02T13:18:40.307Z,8.65
2018-12-02T13:19:47.662Z,8.81
2018-12-02T13:20:55.733Z,8.77
2018-12-02T13:22:03.817Z,8.74
2018-12-02T13:23:11.838Z,8.71
2018-12-02T13:24:19.915Z,8.83
2018-12-02T13:25:27.981Z,8.80
2018-12-02T13:26:36.042Z,8.74
2018-12-02T13:27:44.069Z,8.76
2018-12-02T13:28:52.170Z,8.79
2018-12-02T13:30:00.213Z,8.76
2018-12-02T13:31:08.291Z,8.73
2018-12-02T13:32:16.332Z,8.73
2018-12-02T13:33:24.406Z,8.77
2018-12-02T13:34:32.461Z,8.81
2018-12-02T13:35:40.525Z,8.71
2018-12-02T13:36:48.605Z,8.81
2018-12-02T13:37:56.638Z,8.83
2018-12-02T13:39:04.695Z,8.83
2018-12-02T13:40:12.770Z,8.83
2018-12-02T13:41:20.856Z,8.86
2018-12-02T13:42:28.876Z,8.84
2018-12-02T13:43:36.980Z,8.87
2018-12-02T13:44:45.004Z,8.80
2018-12-02T13:45:53.091Z,8.76
2018-12-02T13:47:01.128Z,8.80
2018-12-02T13:48:09.229Z,8.84
2018-12-02T13:49:17.256Z,8.84
2018-12-02T13:50:25.330Z,8.71
2018-12-02T13:51:33.378Z,8.80
2018-12-02T13:52:41.471Z,8.71
2018-12-02T13:53:49.505Z,8.89
2018-12-02T13:54:57.556Z,8.84
2018-12-02T13:56:05.634Z,8.79
2018-12-02T13:57:13.682Z,8.83
2018-12-02T13:58:21.756Z,8.99
2018-12-02T13:59:29.805Z,8.89
2018-12-02T14:00:37.890Z,8.89
2018-12-02T14:01:45.964Z,8.95
2018-12-02T14:02:54.000Z,8.95
2018-12-02T14:04:02.059Z,8.95
2018-12-02T14:05:10.099Z,8.98
2018-12-02T14:06:18.164Z,8.96
2018-12-02T14:07:26.237Z,9.04
2018-12-02T14:08:34.307Z,8.99
2018-12-02T14:09:42.342Z,9.01
2018-12-02T14:10:50.446Z,9.04
2018-12-02T14:11:58.530Z,9.04
2018-12-02T14:13:06.560Z,9.01
2018-12-02T14:14:14.587Z,9.08
2018-12-02T14:15:22.675Z,9.02
2018-12-02T14:16:30.720Z,9.01
2018-12-02T14:17:38.786Z,9.02
2018-12-02T14:18:46.859Z,9.02
2018-12-02T14:19:54.912Z,9.05
2018-12-02T14:21:02.983Z,9.02
2018-12-02T14:22:11.051Z,9.01
2018-12-02T14:23:19.096Z,9.01
2018-12-02T14:24:27.151Z,9.02
2018-12-02T14:25:35.210Z,8.99
2018-12-02T14:26:43.283Z,9.02
2018-12-02T14:27:51.326Z,9.04
2018-12-02T14:28:59.398Z,9.05
2018-12-02T14:30:07.477Z,9.04
2018-12-02T14:31:15.517Z,9.02
2018-12-02T14:32:23.596Z,9.02
2018-12-02T14:33:35.759Z,8.96
2018-12-02T14:34:39.710Z,9.01
2018-12-02T14:35:47.796Z,8.94
2018-12-02T14:36:55.851Z,8.98
2018-12-02T14:38:03.876Z,8.95
2018-12-02T14:39:11.960Z,8.96
2018-12-02T14:40:20.034Z,8.95
2018-12-02T14:41:28.086Z,9.02
2018-12-02T14:42:36.153Z,8.98
2018-12-02T14:43:44.213Z,8.95
2018-12-02T14:44:52.278Z,8.95
2018-12-02T14:46:00.347Z,8.92
2018-12-02T14:47:08.409Z,8.96
2018-12-02T14:48:16.465Z,8.99
2018-12-02T14:49:24.514Z,8.99
2018-12-02T14:50:32.587Z,8.96
2018-12-02T14:51:40.654Z,8.99
2018-12-02T14:52:48.728Z,9.02
2018-12-02T14:53:56.801Z,8.89
2018-12-02T14:55:04.835Z,8.96
2018-12-02T14:56:12.904Z,8.96
2018-12-02T14:57:20.960Z,9.01
2018-12-02T14:58:29.019Z,8.94
2018-12-02T14:59:37.094Z,8.99
2018-12-02T15:00:45.166Z,8.94
2018-12-02T15:01:53.198Z,8.99
2018-12-02T15:03:01.283Z,8.92
2018-12-02T15:04:09.316Z,8.95
2018-12-02T15:05:17.409Z,9.02
2018-12-02T15:06:25.456Z,9.01